createdAt,value
2022-12-01T00:00:32.000Z,18.2
2022-12-01T00:01:48.000Z,18.5
2022-12-01T00:03:03.000Z,17.6
2022-12-01T00:04:19.000Z,16.1
2022-12-01T00:06:52.000Z,22.3
2022-12-01T00:08:07.000Z,18.5
2022-12-01T00:09:22.000Z,22.3
2022-12-01T00:10:38.000Z,19.6
2022-12-01T00:11:55.000Z,20
2022-12-01T00:13:11.000Z,21.3
2022-12-01T00:14:27.000Z,19.9
2022-12-01T00:15:43.000Z,22.8
2022-12-01T00:16:59.000Z,23.4
2022-12-01T00:18:16.000Z,19.8
2022-12-01T00:19:32.000Z,23.5
2022-12-01T00:20:48.000Z,23.2
2022-12-01T00:22:03.000Z,18.5
2022-12-01T00:23:18.000Z,24.5
2022-12-01T00:24:35.000Z,18.5
2022-12-01T00:25:51.000Z,23.2
2022-12-01T00:27:07.000Z,18.3
2022-12-01T00:28:23.000Z,17.4
2022-12-01T00:29:39.000Z,17.5
2022-12-01T00:32:12.000Z,23.3
2022-12-01T00:33:28.000Z,17.4
2022-12-01T00:34:44.000Z,25.1
2022-12-01T00:36:00.000Z,21.2
2022-12-01T00:37:17.000Z,19.1
2022-12-01T00:38:33.000Z,16.2
2022-12-01T00:39:48.000Z,19.9
2022-12-01T00:41:04.000Z,22.2
2022-12-01T00:42:20.000Z,22.2
2022-12-01T00:43:37.000Z,22.6
2022-12-01T00:44:53.000Z,25.9
2022-12-01T00:46:09.000Z,19.3
2022-12-01T00:47:25.000Z,15.2
2022-12-01T00:48:41.000Z,22.2
2022-12-01T00:49:57.000Z,21.1
2022-12-01T00:51:13.000Z,20.7
2022-12-01T00:52:28.000Z,20.1
2022-12-01T00:53:43.000Z,18.9
2022-12-01T00:54:59.000Z,21.6
2022-12-01T00:56:16.000Z,18.6
2022-12-01T00:57:32.000Z,17.6
2022-12-01T00:58:48.000Z,17.7
2022-12-01T01:00:04.000Z,19.3
2022-12-01T01:01:20.000Z,17.6
2022-12-01T01:02:37.000Z,20.4
2022-12-01T01:03:53.000Z,17.4
2022-12-01T01:05:09.000Z,20.3
2022-12-01T01:06:25.000Z,21.3
2022-12-01T01:07:41.000Z,18.5
2022-12-01T01:10:14.000Z,21.1
2022-12-01T01:11:29.000Z,15.8
2022-12-01T01:12:45.000Z,13.3
2022-12-01T01:14:01.000Z,16.3
2022-12-01T01:15:17.000Z,15.4
2022-12-01T01:16:34.000Z,16.8
2022-12-01T01:17:50.000Z,20
2022-12-01T01:19:06.000Z,18.1
2022-12-01T01:20:21.000Z,16.9
2022-12-01T01:21:37.000Z,15.2
2022-12-01T01:22:53.000Z,17.6
2022-12-01T01:24:08.000Z,19
2022-12-01T01:25:23.000Z,16.2
2022-12-01T01:26:39.000Z,15.1
2022-12-01T01:27:56.000Z,16.3
2022-12-01T01:29:12.000Z,17.1
2022-12-01T01:30:28.000Z,19.2
2022-12-01T01:31:44.000Z,12.9
2022-12-01T01:33:00.000Z,13.7
2022-12-01T01:34:16.000Z,16.5
2022-12-01T01:35:33.000Z,16.7
2022-12-01T01:36:49.000Z,14.5
2022-12-01T01:38:05.000Z,15.9
2022-12-01T01:39:21.000Z,16.9
2022-12-01T01:40:37.000Z,16.8
2022-12-01T01:41:53.000Z,15.7
2022-12-01T01:43:09.000Z,13.9
2022-12-01T01:44:25.000Z,14.5
2022-12-01T01:45:41.000Z,17
2022-12-01T01:46:57.000Z,14.5
2022-12-01T01:48:14.000Z,16.8
2022-12-01T01:49:30.000Z,15.4
2022-12-01T01:50:45.000Z,18.2
2022-12-01T01:52:00.000Z,13
2022-12-01T01:53:15.000Z,13.6
2022-12-01T01:54:31.000Z,15.9
2022-12-01T01:55:47.000Z,14.1
2022-12-01T01:57:03.000Z,17.7
2022-12-01T01:58:19.000Z,15.3
2022-12-01T01:59:35.000Z,18.1
2022-12-01T02:00:52.000Z,20.2
2022-12-01T02:02:08.000Z,19.4
2022-12-01T02:03:24.000Z,16.1
2022-12-01T02:04:40.000Z,17.2
2022-12-01T02:05:56.000Z,18.1
2022-12-01T02:07:13.000Z,16.3
2022-12-01T02:08:29.000Z,18.8
2022-12-01T02:09:45.000Z,17.6
2022-12-01T02:11:00.000Z,24
2022-12-01T02:13:33.000Z,17.7
2022-12-01T02:14:49.000Z,17.2
2022-12-01T02:16:05.000Z,19.1
2022-12-01T02:17:21.000Z,16.7
2022-12-01T02:18:37.000Z,16.4
2022-12-01T02:19:54.000Z,14.8
2022-12-01T02:21:10.000Z,15.9
2022-12-01T02:22:25.000Z,21.3
2022-12-01T02:23:40.000Z,13.7
2022-12-01T02:26:13.000Z,15.9
2022-12-01T02:27:29.000Z,15.5
2022-12-01T02:28:45.000Z,17.1
2022-12-01T02:30:01.000Z,14.4
2022-12-01T02:31:17.000Z,13.8
2022-12-01T02:32:34.000Z,17.3
2022-12-01T02:33:50.000Z,12.5
2022-12-01T02:35:06.000Z,15.5
2022-12-01T02:37:38.000Z,13.9
2022-12-01T02:38:54.000Z,16.3
2022-12-01T02:40:09.000Z,12.9
2022-12-01T02:41:24.000Z,12.7
2022-12-01T02:42:39.000Z,13.2
2022-12-01T02:43:55.000Z,9.8
2022-12-01T02:45:12.000Z,11.8
2022-12-01T02:46:28.000Z,14.9
2022-12-01T02:47:44.000Z,12.2
2022-12-01T02:49:00.000Z,14.7
2022-12-01T02:51:33.000Z,16.1
2022-12-01T02:52:48.000Z,14.5
2022-12-01T02:54:04.000Z,13.5
2022-12-01T02:55:20.000Z,9.9
2022-12-01T02:56:36.000Z,12.8
2022-12-01T02:57:53.000Z,13.2
2022-12-01T02:59:09.000Z,12
2022-12-01T03:00:25.000Z,14.1
2022-12-01T03:01:41.000Z,13.1
2022-12-01T03:02:57.000Z,13.7
2022-12-01T03:04:14.000Z,13
2022-12-01T03:05:30.000Z,15.9
2022-12-01T03:06:46.000Z,10.6
2022-12-01T03:08:02.000Z,15.5
2022-12-01T03:09:17.000Z,15.7
2022-12-01T03:10:33.000Z,11.7
2022-12-01T03:11:48.000Z,17.1
2022-12-01T03:13:03.000Z,17.5
2022-12-01T03:14:19.000Z,13.3
2022-12-01T03:16:52.000Z,15.4
2022-12-01T03:18:08.000Z,18.5
2022-12-01T03:19:24.000Z,18.2
2022-12-01T03:20:40.000Z,13.6
2022-12-01T03:21:56.000Z,15.3
2022-12-01T03:23:13.000Z,18.9
2022-12-01T03:24:29.000Z,17.6
2022-12-01T03:25:45.000Z,16.8
2022-12-01T03:27:01.000Z,14.8
2022-12-01T03:29:34.000Z,17.5
2022-12-01T03:30:49.000Z,17.7
2022-12-01T03:32:04.000Z,15.2
2022-12-01T03:33:20.000Z,15.6
2022-12-01T03:34:36.000Z,18.9
2022-12-01T03:35:53.000Z,18.7
2022-12-01T03:37:09.000Z,18.4
2022-12-01T03:38:25.000Z,15.8
2022-12-01T03:39:41.000Z,22.5
2022-12-01T03:40:57.000Z,16.3
2022-12-01T03:42:14.000Z,19.4
2022-12-01T03:43:30.000Z,17.9
2022-12-01T03:44:45.000Z,19.5
2022-12-01T03:46:00.000Z,17.2
2022-12-01T03:47:16.000Z,20.1
2022-12-01T03:49:49.000Z,17.8
2022-12-01T03:51:05.000Z,16.7
2022-12-01T03:52:21.000Z,18.6
2022-12-01T03:54:54.000Z,15.4
2022-12-01T03:56:10.000Z,19.4
2022-12-01T03:57:26.000Z,16.6
2022-12-01T03:58:42.000Z,16.7
2022-12-01T03:59:58.000Z,18.4
2022-12-01T04:01:14.000Z,17
2022-12-01T04:02:29.000Z,16.2
2022-12-01T04:03:45.000Z,19.5
2022-12-01T04:05:01.000Z,15.7
2022-12-01T04:06:17.000Z,21.8
2022-12-01T04:07:34.000Z,16
2022-12-01T04:08:50.000Z,15.3
2022-12-01T04:10:06.000Z,19.7
2022-12-01T04:11:22.000Z,19.6
2022-12-01T04:12:38.000Z,16.3
2022-12-01T04:13:54.000Z,17.9
2022-12-01T04:15:10.000Z,15.5
2022-12-01T04:16:25.000Z,21.1
2022-12-01T04:17:41.000Z,15.6
2022-12-01T04:18:57.000Z,18.1
2022-12-01T04:20:14.000Z,15.3
2022-12-01T04:21:30.000Z,20.3
2022-12-01T04:22:46.000Z,21.1
2022-12-01T04:24:02.000Z,14.7
2022-12-01T04:25:18.000Z,16.1
2022-12-01T04:26:34.000Z,18.4
2022-12-01T04:27:51.000Z,16
2022-12-01T04:29:07.000Z,21.8
2022-12-01T04:30:23.000Z,19.5
2022-12-01T04:32:55.000Z,19.8
2022-12-01T04:34:11.000Z,20.3
2022-12-01T04:35:27.000Z,20.3
2022-12-01T04:36:43.000Z,19
2022-12-01T04:37:59.000Z,20.6
2022-12-01T04:39:15.000Z,19.1
2022-12-01T04:40:32.000Z,21.6
2022-12-01T04:41:48.000Z,20.4
2022-12-01T04:43:04.000Z,21.6
2022-12-01T04:44:19.000Z,18
2022-12-01T04:45:34.000Z,18.3
2022-12-01T04:46:51.000Z,22.1
2022-12-01T04:48:06.000Z,19.2
2022-12-01T04:49:21.000Z,25.6
2022-12-01T04:50:37.000Z,20.1
2022-12-01T04:51:54.000Z,20.5
2022-12-01T04:53:10.000Z,18.3
2022-12-01T04:54:26.000Z,19.7
2022-12-01T04:55:42.000Z,19.4
2022-12-01T04:56:58.000Z,19.8
2022-12-01T04:58:14.000Z,18.6
2022-12-01T04:59:31.000Z,18.7
2022-12-01T05:00:47.000Z,22.6
2022-12-01T05:02:03.000Z,20.9
2022-12-01T05:03:19.000Z,17.9
2022-12-01T05:04:35.000Z,22.8
2022-12-01T05:05:51.000Z,18.9
2022-12-01T05:07:07.000Z,26.1
2022-12-01T05:08:23.000Z,19.5
2022-12-01T05:10:55.000Z,22.4
2022-12-01T05:12:12.000Z,21.3
2022-12-01T05:13:28.000Z,17
2022-12-01T05:14:44.000Z,20.9
2022-12-01T05:15:59.000Z,20.3
2022-12-01T05:17:14.000Z,20.6
2022-12-01T05:18:30.000Z,19.6
2022-12-01T05:19:45.000Z,14.4
2022-12-01T05:21:01.000Z,20.6
2022-12-01T05:22:17.000Z,23.2
2022-12-01T05:23:33.000Z,22.4
2022-12-01T05:24:50.000Z,20.9
2022-12-01T05:26:06.000Z,19.9
2022-12-01T05:27:22.000Z,19.7
2022-12-01T05:28:38.000Z,22.9
2022-12-01T05:29:54.000Z,24.7
2022-12-01T05:31:11.000Z,17.9
2022-12-01T05:32:27.000Z,22.3
2022-12-01T05:33:43.000Z,24.6
2022-12-01T05:34:59.000Z,24.3
2022-12-01T05:36:15.000Z,22.9
2022-12-01T05:37:31.000Z,20.2
2022-12-01T05:38:47.000Z,22.3
2022-12-01T05:40:03.000Z,22.7
2022-12-01T05:41:19.000Z,24.5
2022-12-01T05:42:35.000Z,24.3
2022-12-01T05:43:52.000Z,18.5
2022-12-01T05:45:07.000Z,25.5
2022-12-01T05:46:22.000Z,22
2022-12-01T05:48:54.000Z,17.1
2022-12-01T05:50:10.000Z,21.8
2022-12-01T05:51:25.000Z,18.7
2022-12-01T05:52:41.000Z,17.7
2022-12-01T05:53:57.000Z,17.3
2022-12-01T05:55:13.000Z,19.5
2022-12-01T05:56:30.000Z,20.1
2022-12-01T05:57:46.000Z,16
2022-12-01T05:59:02.000Z,17.8
2022-12-01T06:00:18.000Z,26.4
2022-12-01T06:02:51.000Z,21.4
2022-12-01T06:05:23.000Z,17.8
2022-12-01T06:06:38.000Z,20
2022-12-01T06:07:53.000Z,17.8
2022-12-01T06:09:10.000Z,16.1
2022-12-01T06:10:26.000Z,18.7
2022-12-01T06:11:42.000Z,19.5
2022-12-01T06:14:14.000Z,19.6
2022-12-01T06:15:31.000Z,17.7
2022-12-01T06:16:47.000Z,17
2022-12-01T06:18:03.000Z,19.3
2022-12-01T06:19:19.000Z,18.9
2022-12-01T06:20:35.000Z,19.5
2022-12-01T06:21:52.000Z,17.9
2022-12-01T06:23:08.000Z,19.7
2022-12-01T06:24:23.000Z,13.6
2022-12-01T06:26:55.000Z,16
2022-12-01T06:28:11.000Z,18
2022-12-01T06:29:27.000Z,17.2
2022-12-01T06:30:43.000Z,16.3
2022-12-01T06:31:59.000Z,17.9
2022-12-01T06:33:16.000Z,15.4
2022-12-01T06:34:32.000Z,18
2022-12-01T06:35:48.000Z,20.5
2022-12-01T06:37:04.000Z,18.5
2022-12-01T06:38:20.000Z,15.1
2022-12-01T06:39:37.000Z,16.5
2022-12-01T06:42:09.000Z,16
2022-12-01T06:43:25.000Z,19.3
2022-12-01T06:44:41.000Z,17.4
2022-12-01T06:45:58.000Z,14
2022-12-01T06:47:14.000Z,15.7
2022-12-01T06:48:29.000Z,16.3
2022-12-01T06:49:45.000Z,12.3
2022-12-01T06:51:01.000Z,11.8
2022-12-01T06:53:34.000Z,14.4
2022-12-01T06:54:50.000Z,18.2
2022-12-01T06:56:06.000Z,14.9
2022-12-01T06:57:21.000Z,15.6
2022-12-01T06:58:38.000Z,13.8
2022-12-01T06:59:54.000Z,16.3
2022-12-01T07:01:09.000Z,13.5
2022-12-01T07:02:25.000Z,13.5
2022-12-01T07:04:58.000Z,13
2022-12-01T07:06:14.000Z,13.6
2022-12-01T07:07:30.000Z,12.8
2022-12-01T07:08:46.000Z,11.6
2022-12-01T07:10:02.000Z,11.6
2022-12-01T07:11:19.000Z,12.4
2022-12-01T07:12:35.000Z,17.4
2022-12-01T07:13:51.000Z,16.2
2022-12-01T07:15:07.000Z,14.9
2022-12-01T07:17:39.000Z,17.6
2022-12-01T07:18:55.000Z,13.5
2022-12-01T07:20:11.000Z,14.5
2022-12-01T07:21:27.000Z,12.4
2022-12-01T07:22:43.000Z,16
2022-12-01T07:23:59.000Z,14.5
2022-12-01T07:25:16.000Z,13.8
2022-12-01T07:26:31.000Z,12.9
2022-12-01T07:27:47.000Z,14.6
2022-12-01T07:30:20.000Z,12.9
2022-12-01T07:31:36.000Z,11.9
2022-12-01T07:32:52.000Z,16.5
2022-12-01T07:34:08.000Z,16.8
2022-12-01T07:35:24.000Z,19.2
2022-12-01T07:36:40.000Z,13.9
2022-12-01T07:37:57.000Z,11.8
2022-12-01T07:39:13.000Z,13.9
2022-12-01T07:43:01.000Z,11.5
2022-12-01T07:44:18.000Z,11.9
2022-12-01T07:45:34.000Z,10.7
2022-12-01T07:46:50.000Z,16.2
2022-12-01T07:48:06.000Z,14.7
2022-12-01T07:49:22.000Z,12.8
2022-12-01T07:50:39.000Z,14.5
2022-12-01T07:51:55.000Z,13.3
2022-12-01T07:53:11.000Z,21.1
2022-12-01T07:54:27.000Z,11.2
2022-12-01T07:55:43.000Z,13.1
2022-12-01T07:57:00.000Z,16.5
2022-12-01T07:58:16.000Z,10.4
2022-12-01T07:59:32.000Z,13.1
2022-12-01T08:00:48.000Z,10.6
2022-12-01T08:02:03.000Z,13.3
2022-12-01T08:03:19.000Z,13
2022-12-01T08:04:35.000Z,13.4
2022-12-01T08:05:50.000Z,10.5
2022-12-01T08:08:21.000Z,14.1
2022-12-01T08:09:38.000Z,13.6
2022-12-01T08:10:54.000Z,21.5
2022-12-01T08:12:10.000Z,11.7
2022-12-01T08:13:26.000Z,11.8
2022-12-01T08:14:42.000Z,13.4
2022-12-01T08:15:59.000Z,14.5
2022-12-01T08:17:15.000Z,10.9
2022-12-01T08:18:31.000Z,11.6
2022-12-01T08:21:03.000Z,14
2022-12-01T08:22:20.000Z,12.7
2022-12-01T08:23:35.000Z,13.8
2022-12-01T08:24:51.000Z,15.7
2022-12-01T08:26:07.000Z,18.6
2022-12-01T08:27:23.000Z,14.2
2022-12-01T08:28:40.000Z,18.7
2022-12-01T08:29:56.000Z,16.6
2022-12-01T08:31:12.000Z,16.3
2022-12-01T08:33:44.000Z,12.1
2022-12-01T08:35:01.000Z,15.9
2022-12-01T08:36:16.000Z,13.7
2022-12-01T08:38:47.000Z,17.2
2022-12-01T08:40:03.000Z,14.1
2022-12-01T08:41:19.000Z,17.4
2022-12-01T08:42:34.000Z,15.4
2022-12-01T08:43:50.000Z,18.3
2022-12-01T08:45:06.000Z,22.4
2022-12-01T08:46:22.000Z,15.5
2022-12-01T08:48:55.000Z,18.1
2022-12-01T08:50:11.000Z,23.5
2022-12-01T08:51:27.000Z,20.2
2022-12-01T08:52:43.000Z,19.6
2022-12-01T08:54:00.000Z,20.6
2022-12-01T08:55:16.000Z,20.9
2022-12-01T08:56:32.000Z,19
2022-12-01T08:57:48.000Z,21.1
2022-12-01T08:59:03.000Z,24.5
2022-12-01T09:00:20.000Z,20.3
2022-12-01T09:01:36.000Z,19.4
2022-12-01T09:02:52.000Z,23.5
2022-12-01T09:04:08.000Z,19.4
2022-12-01T09:05:24.000Z,19.1
2022-12-01T09:06:41.000Z,21.1
2022-12-01T09:07:57.000Z,23.1
2022-12-01T09:09:12.000Z,27.2
2022-12-01T09:10:27.000Z,21.5
2022-12-01T09:11:43.000Z,24.1
2022-12-01T09:13:00.000Z,23.7
2022-12-01T09:14:15.000Z,22
2022-12-01T09:15:30.000Z,22.2
2022-12-01T09:16:46.000Z,25.9
2022-12-01T09:18:02.000Z,20.3
2022-12-01T09:19:19.000Z,24.3
2022-12-01T09:20:35.000Z,21.7
2022-12-01T09:21:51.000Z,24.4
2022-12-01T09:23:07.000Z,23.4
2022-12-01T09:24:23.000Z,21.1
2022-12-01T09:25:40.000Z,25.6
2022-12-01T09:26:56.000Z,23.2
2022-12-01T09:28:11.000Z,22.9
2022-12-01T09:29:26.000Z,26.2
2022-12-01T09:30:42.000Z,25.8
2022-12-01T09:31:59.000Z,20.5
2022-12-01T09:34:31.000Z,25.6
2022-12-01T09:37:03.000Z,21
2022-12-01T09:38:20.000Z,26.2
2022-12-01T09:39:36.000Z,24
2022-12-01T09:40:52.000Z,23.7
2022-12-01T09:42:08.000Z,26
2022-12-01T09:43:24.000Z,20.1
2022-12-01T09:44:40.000Z,24.4
2022-12-01T09:45:55.000Z,25.5
2022-12-01T09:47:11.000Z,25.3
2022-12-01T09:49:43.000Z,22.5
2022-12-01T09:51:00.000Z,30.4
2022-12-01T09:52:16.000Z,24.8
2022-12-01T09:53:32.000Z,24.8
2022-12-01T09:54:48.000Z,28.8
2022-12-01T09:56:04.000Z,24.3
2022-12-01T09:57:21.000Z,30
2022-12-01T09:58:37.000Z,25.8
2022-12-01T09:59:53.000Z,30.3
2022-12-01T10:01:09.000Z,27.9
2022-12-01T10:02:24.000Z,29.3
2022-12-01T10:04:57.000Z,29.3
2022-12-01T10:06:12.000Z,30
2022-12-01T10:07:28.000Z,31.3
2022-12-01T10:08:45.000Z,29.1
2022-12-01T10:10:01.000Z,32.4
2022-12-01T10:11:17.000Z,32
2022-12-01T10:12:33.000Z,33.2
2022-12-01T10:15:06.000Z,32.8
2022-12-01T10:17:38.000Z,39.9
2022-12-01T10:18:54.000Z,31.1
2022-12-01T10:20:10.000Z,31.6
2022-12-01T10:21:26.000Z,30.6
2022-12-01T10:22:43.000Z,29.2
2022-12-01T10:23:58.000Z,26
2022-12-01T10:25:14.000Z,34.9
2022-12-01T10:26:30.000Z,28.8
2022-12-01T10:27:46.000Z,32.8
2022-12-01T10:29:03.000Z,28.1
2022-12-01T10:30:19.000Z,28.4
2022-12-01T10:31:35.000Z,29.1
2022-12-01T10:32:51.000Z,28
2022-12-01T10:34:07.000Z,32.1
2022-12-01T10:35:23.000Z,33.2
2022-12-01T10:36:38.000Z,35.3
2022-12-01T10:37:53.000Z,30.6
2022-12-01T10:39:08.000Z,30.1
2022-12-01T10:40:25.000Z,29.2
2022-12-01T10:41:41.000Z,31.1
2022-12-01T10:42:57.000Z,34.8
2022-12-01T10:44:13.000Z,28.9
2022-12-01T10:45:29.000Z,29
2022-12-01T10:46:46.000Z,33.2
2022-12-01T10:48:02.000Z,32.1
2022-12-01T10:49:18.000Z,31.6
2022-12-01T10:50:34.000Z,33.8
2022-12-01T10:51:49.000Z,30.3
2022-12-01T10:53:05.000Z,26.7
2022-12-01T10:54:21.000Z,36.1
2022-12-01T10:55:37.000Z,31.8
2022-12-01T10:56:53.000Z,29.3
2022-12-01T10:58:09.000Z,29
2022-12-01T10:59:26.000Z,30.1
2022-12-01T11:00:42.000Z,24.8
2022-12-01T11:01:58.000Z,28.4
2022-12-01T11:03:14.000Z,28.1
2022-12-01T11:05:46.000Z,27.7
2022-12-01T11:08:19.000Z,32.3
2022-12-01T11:09:34.000Z,29.4
2022-12-01T11:10:49.000Z,35.2
2022-12-01T11:12:06.000Z,31.3
2022-12-01T11:13:22.000Z,29.6
2022-12-01T11:14:38.000Z,27.3
2022-12-01T11:15:54.000Z,36.3
2022-12-01T11:18:27.000Z,29.1
2022-12-01T11:19:43.000Z,34.2
2022-12-01T11:20:59.000Z,32.7
2022-12-01T11:22:15.000Z,29.9
2022-12-01T11:23:31.000Z,27.3
2022-12-01T11:24:47.000Z,32.3
2022-12-01T11:26:04.000Z,30.1
2022-12-01T11:27:19.000Z,26.6
2022-12-01T11:28:35.000Z,31.2
2022-12-01T11:29:51.000Z,33.2
2022-12-01T11:31:07.000Z,30.8
2022-12-01T11:32:24.000Z,35.3
2022-12-01T11:33:40.000Z,33.2
2022-12-01T11:34:56.000Z,39.3
2022-12-01T11:36:12.000Z,37.4
2022-12-01T11:37:27.000Z,31.6
2022-12-01T11:38:43.000Z,31.6
2022-12-01T11:39:59.000Z,36.8
2022-12-01T11:41:14.000Z,36.3
2022-12-01T11:43:47.000Z,33.4
2022-12-01T11:45:03.000Z,36.3
2022-12-01T11:46:19.000Z,34.8
2022-12-01T11:47:35.000Z,32.9
2022-12-01T11:48:51.000Z,30.3
2022-12-01T11:50:07.000Z,30
2022-12-01T11:51:24.000Z,33.9
2022-12-01T11:52:40.000Z,36.8
2022-12-01T11:53:56.000Z,32.9
2022-12-01T11:56:28.000Z,28.7
2022-12-01T11:57:44.000Z,30.7
2022-12-01T11:58:59.000Z,28.9
2022-12-01T12:00:15.000Z,32.3
2022-12-01T12:01:30.000Z,27.3
2022-12-01T12:02:46.000Z,28.4
2022-12-01T12:04:02.000Z,28.9
2022-12-01T12:05:18.000Z,29.9
2022-12-01T12:06:34.000Z,24.8
2022-12-01T12:07:50.000Z,33.2
2022-12-01T12:09:07.000Z,32.2
2022-12-01T12:10:23.000Z,32.1
2022-12-01T12:11:39.000Z,28
2022-12-01T12:12:55.000Z,30.4
2022-12-01T12:14:11.000Z,26.7
2022-12-01T12:15:27.000Z,28.2
2022-12-01T12:16:42.000Z,33.4
2022-12-01T12:17:58.000Z,31.5
2022-12-01T12:19:14.000Z,25.2
2022-12-01T12:20:30.000Z,24.7
2022-12-01T12:21:47.000Z,30.6
2022-12-01T12:23:03.000Z,28.9
2022-12-01T12:24:19.000Z,23.3
2022-12-01T12:25:35.000Z,27.8
2022-12-01T12:26:51.000Z,27.3
2022-12-01T12:28:07.000Z,25.9
2022-12-01T12:29:23.000Z,33.1
2022-12-01T12:30:38.000Z,31.1
2022-12-01T12:31:54.000Z,29.5
2022-12-01T12:33:10.000Z,29.4
2022-12-01T12:34:27.000Z,24.6
2022-12-01T12:36:59.000Z,27.3
2022-12-01T12:38:15.000Z,28.2
2022-12-01T12:39:31.000Z,28.4
2022-12-01T12:40:47.000Z,25.9
2022-12-01T12:42:04.000Z,26.3
2022-12-01T12:43:20.000Z,27.4
2022-12-01T12:44:36.000Z,23.5
2022-12-01T12:45:52.000Z,25.7
2022-12-01T12:47:07.000Z,28.5
2022-12-01T12:48:24.000Z,31.7
2022-12-01T12:49:40.000Z,25.6
2022-12-01T12:50:56.000Z,29.7
2022-12-01T12:52:12.000Z,22.1
2022-12-01T12:53:28.000Z,26.8
2022-12-01T12:54:45.000Z,26.5
2022-12-01T12:56:01.000Z,25.1
2022-12-01T12:57:16.000Z,27.4
2022-12-01T12:59:47.000Z,26.9
2022-12-01T13:01:03.000Z,26.3
2022-12-01T13:02:18.000Z,21.5
2022-12-01T13:03:34.000Z,28.4
2022-12-01T13:04:50.000Z,29.5
2022-12-01T13:07:23.000Z,26.2
2022-12-01T13:08:39.000Z,32.6
2022-12-01T13:09:55.000Z,25
2022-12-01T13:12:27.000Z,28.9
2022-12-01T13:13:44.000Z,27.3
2022-12-01T13:15:00.000Z,25.8
2022-12-01T13:16:16.000Z,30.7
2022-12-01T13:17:31.000Z,26.1
2022-12-01T13:18:46.000Z,30
2022-12-01T13:20:03.000Z,31.2
2022-12-01T13:21:19.000Z,25.4
2022-12-01T13:22:35.000Z,28.3
2022-12-01T13:25:07.000Z,26.7
2022-12-01T13:26:24.000Z,26.4
2022-12-01T13:27:40.000Z,35.5
2022-12-01T13:28:56.000Z,29.5
2022-12-01T13:30:12.000Z,26.2
2022-12-01T13:31:28.000Z,26
2022-12-01T13:32:45.000Z,23.8
2022-12-01T13:34:01.000Z,26.5
2022-12-01T13:35:16.000Z,28.8
2022-12-01T13:37:48.000Z,27.2
2022-12-01T13:39:04.000Z,25.6
2022-12-01T13:40:19.000Z,27.3
2022-12-01T13:41:35.000Z,24.8
2022-12-01T13:42:51.000Z,22.8
2022-12-01T13:44:07.000Z,25.4
2022-12-01T13:46:40.000Z,27
2022-12-01T13:47:56.000Z,27.1
2022-12-01T13:50:28.000Z,25.1
2022-12-01T13:51:45.000Z,26.3
2022-12-01T13:53:01.000Z,27.8
2022-12-01T13:54:17.000Z,30.5
2022-12-01T13:55:33.000Z,31.7
2022-12-01T13:56:48.000Z,31.9
2022-12-01T13:58:05.000Z,35.3
2022-12-01T13:59:21.000Z,31.5
2022-12-01T14:00:37.000Z,28.2
2022-12-01T14:01:53.000Z,28.5
2022-12-01T14:03:09.000Z,29.1
2022-12-01T14:04:26.000Z,31.1
2022-12-01T14:05:42.000Z,31.8
2022-12-01T14:06:58.000Z,26.3
2022-12-01T14:08:13.000Z,28.2
2022-12-01T14:09:28.000Z,32.7
2022-12-01T14:10:44.000Z,26.3
2022-12-01T14:11:59.000Z,27.8
2022-12-01T14:13:15.000Z,29.5
2022-12-01T14:14:31.000Z,26
2022-12-01T14:15:47.000Z,28.2
2022-12-01T14:17:04.000Z,30.5
2022-12-01T14:18:20.000Z,27.3
2022-12-01T14:19:36.000Z,29
2022-12-01T14:20:52.000Z,28.2
2022-12-01T14:23:24.000Z,26.9
2022-12-01T14:24:41.000Z,29.7
2022-12-01T14:25:57.000Z,27.2
2022-12-01T14:27:13.000Z,28.9
2022-12-01T14:28:28.000Z,25.9
2022-12-01T14:29:44.000Z,35.5
2022-12-01T14:31:01.000Z,26.5
2022-12-01T14:32:17.000Z,30
2022-12-01T14:33:33.000Z,27.2
2022-12-01T14:34:49.000Z,30
2022-12-01T14:36:05.000Z,28.3
2022-12-01T14:37:22.000Z,34.3
2022-12-01T14:38:37.000Z,27
2022-12-01T14:41:08.000Z,32.7
2022-12-01T14:42:23.000Z,30.4
2022-12-01T14:43:39.000Z,28.4
2022-12-01T14:44:55.000Z,31.7
2022-12-01T14:46:11.000Z,33.6
2022-12-01T14:47:27.000Z,28.9
2022-12-01T14:48:43.000Z,35.2
2022-12-01T14:50:00.000Z,28.9
2022-12-01T14:51:16.000Z,27.8
2022-12-01T14:52:32.000Z,31.3
2022-12-01T14:53:48.000Z,33.8
2022-12-01T14:55:04.000Z,29.2
2022-12-01T14:56:20.000Z,29
2022-12-01T14:57:35.000Z,31.4
2022-12-01T14:58:51.000Z,27.7
2022-12-01T15:00:07.000Z,30.7
2022-12-01T15:01:23.000Z,31.4
2022-12-01T15:02:40.000Z,31.7
2022-12-01T15:03:56.000Z,27.2
2022-12-01T15:05:12.000Z,24.4
2022-12-01T15:06:28.000Z,24.5
2022-12-01T15:09:01.000Z,28.7
2022-12-01T15:10:17.000Z,30.7
2022-12-01T15:11:33.000Z,27.2
2022-12-01T15:12:49.000Z,29.7
2022-12-01T15:14:04.000Z,29.2
2022-12-01T15:15:21.000Z,32.9
2022-12-01T15:19:09.000Z,33.6
2022-12-01T15:20:24.000Z,26.4
2022-12-01T15:21:40.000Z,26.9
2022-12-01T15:22:56.000Z,27.7
2022-12-01T15:24:12.000Z,29.2
2022-12-01T15:25:28.000Z,30.6
2022-12-01T15:26:44.000Z,32.1
2022-12-01T15:28:01.000Z,26.2
2022-12-01T15:29:17.000Z,25.7
2022-12-01T15:30:33.000Z,28.5
2022-12-01T15:31:49.000Z,25.2
2022-12-01T15:33:05.868Z,26.9
2022-12-01T15:34:21.000Z,26.5
2022-12-01T15:35:36.000Z,28.1
2022-12-01T15:36:52.000Z,31.1
2022-12-01T15:39:24.000Z,26.9
2022-12-01T15:43:13.000Z,23.3
2022-12-01T15:44:29.000Z,24.6
2022-12-01T15:45:45.000Z,30.5
2022-12-01T15:47:02.000Z,22.7
2022-12-01T15:48:18.000Z,23.2
2022-12-01T15:49:34.000Z,24.3
2022-12-01T15:50:50.000Z,22.8
2022-12-01T15:52:05.000Z,27
2022-12-01T15:53:21.000Z,26.8
2022-12-01T15:54:37.000Z,24.6
2022-12-01T15:55:52.000Z,23.6
2022-12-01T15:57:08.000Z,23.3
2022-12-01T15:58:24.000Z,25.1
2022-12-01T15:59:41.000Z,27.4
2022-12-01T16:00:57.000Z,28.3
2022-12-01T16:02:13.000Z,30.2
2022-12-01T16:03:29.000Z,24.5
2022-12-01T16:04:45.000Z,26.5
2022-12-01T16:06:01.000Z,26.3
2022-12-01T16:07:16.000Z,21.3
2022-12-01T16:08:32.000Z,21.1
2022-12-01T16:09:48.000Z,28.8
2022-12-01T16:11:04.000Z,24.4
2022-12-01T16:12:21.000Z,26.5
2022-12-01T16:13:37.000Z,24.2
2022-12-01T16:14:53.000Z,26.9
2022-12-01T16:16:09.000Z,23.5
2022-12-01T16:17:25.000Z,24.9
2022-12-01T16:18:42.000Z,24.8
2022-12-01T16:19:58.000Z,26.6
2022-12-01T16:21:14.000Z,24.5
2022-12-01T16:22:30.000Z,21.8
2022-12-01T16:23:45.000Z,25.1
2022-12-01T16:25:01.000Z,25
2022-12-01T16:26:18.000Z,22.4
2022-12-01T16:27:34.000Z,22.1
2022-12-01T16:28:50.000Z,25.5
2022-12-01T16:30:06.000Z,29.4
2022-12-01T16:31:22.000Z,25.1
2022-12-01T16:32:38.000Z,22.6
2022-12-01T16:33:53.000Z,23
2022-12-01T16:35:09.000Z,29.3
2022-12-01T16:36:24.000Z,25.2
2022-12-01T16:37:40.000Z,27.3
2022-12-01T16:38:56.000Z,28.6
2022-12-01T16:40:12.000Z,26.7
2022-12-01T16:41:28.000Z,24.7
2022-12-01T16:42:44.000Z,18.9
2022-12-01T16:44:00.000Z,26.2
2022-12-01T16:45:17.000Z,24.5
2022-12-01T16:46:33.000Z,25.9
2022-12-01T16:47:49.000Z,24.9
2022-12-01T16:49:05.000Z,27.8
2022-12-01T16:50:21.000Z,23.4
2022-12-01T16:51:38.000Z,21.8
2022-12-01T16:52:54.000Z,23.1
2022-12-01T16:54:09.000Z,22.8
2022-12-01T16:55:25.000Z,23
2022-12-01T16:56:41.000Z,25.9
2022-12-01T16:57:58.000Z,24.6
2022-12-01T17:00:30.000Z,24.5
2022-12-01T17:01:46.000Z,28.9
2022-12-01T17:03:02.000Z,21.9
2022-12-01T17:04:18.000Z,24.1
2022-12-01T17:05:33.000Z,25.5
2022-12-01T17:06:48.000Z,23.7
2022-12-01T17:08:03.000Z,22.5
2022-12-01T17:09:19.000Z,23
2022-12-01T17:10:36.000Z,21.2
2022-12-01T17:11:52.000Z,26.5
2022-12-01T17:13:08.000Z,24.1
2022-12-01T17:14:24.000Z,23.3
2022-12-01T17:15:40.000Z,22.6
2022-12-01T17:16:57.000Z,25.1
2022-12-01T17:18:13.000Z,22.1
2022-12-01T17:19:29.000Z,22.4
2022-12-01T17:20:45.000Z,22.3
2022-12-01T17:22:01.000Z,24.4
2022-12-01T17:23:18.000Z,20.9
2022-12-01T17:24:33.000Z,27.7
2022-12-01T17:25:49.000Z,22.7
2022-12-01T17:27:05.000Z,21
2022-12-01T17:28:21.000Z,21.1
2022-12-01T17:29:38.000Z,24
2022-12-01T17:30:54.000Z,20.5
2022-12-01T17:32:10.000Z,22.8
2022-12-01T17:33:26.000Z,25.7
2022-12-01T17:34:42.000Z,18.5
2022-12-01T17:35:59.000Z,21.1
2022-12-01T17:38:31.439Z,18.1
2022-12-01T17:39:47.000Z,23.2
2022-12-01T17:41:02.000Z,23.6
2022-12-01T17:42:19.000Z,21
2022-12-01T17:43:34.000Z,17.7
2022-12-01T17:44:49.000Z,23.4
2022-12-01T17:46:04.000Z,21.6
2022-12-01T17:47:19.000Z,23.8
2022-12-01T17:48:36.000Z,19.9
2022-12-01T17:49:52.000Z,21.1
2022-12-01T17:51:08.000Z,22.2
2022-12-01T17:52:24.000Z,22.6
2022-12-01T17:53:40.000Z,19.5
2022-12-01T17:54:57.000Z,17.1
2022-12-01T17:56:13.000Z,21.4
2022-12-01T17:57:29.000Z,17.3
2022-12-01T17:58:45.000Z,18.4
2022-12-01T18:00:01.000Z,21.5
2022-12-01T18:01:18.000Z,23.3
2022-12-01T18:02:34.000Z,17.4
2022-12-01T18:03:49.000Z,18.7
2022-12-01T18:05:05.000Z,18.3
2022-12-01T18:06:21.000Z,24.1
2022-12-01T18:07:38.000Z,16.1
2022-12-01T18:08:54.000Z,24.2
2022-12-01T18:10:10.000Z,22.4
2022-12-01T18:11:26.000Z,23